This is the latest recevied weather packets stored in our database for station/object GW1561. If no packets are shown the sender has not sent any weather packets the latest 10 day(s).
| Time | Temp. | Humidity | Pressure | Rain* | Wind** | Luminosity | Snow |
|---|---|---|---|---|---|---|---|
| 1777431256 | 15.56° C | 96% | 983.4 hPa | 0 mm | - | - | - |
| 1777430213 | 15.56° C | 96% | 983.4 hPa | 0 mm | - | - | - |
| 1777428393 | 15.56° C | 95% | 983.4 hPa | 0 mm | - | - | - |
| 1777421909 | 18.33° C | 90% | 982.3 hPa | 0 mm | - | - | - |
| 1777420098 | 19.44° C | 87% | - | 0 mm | - | - | - |
| 1777418667 | 20.56° C | 83% | - | 0 mm | - | - | - |
| 1777417608 | 22.22° C | 70% | - | 0 mm | - | - | - |
| 1777417237 | 22.78° C | 70% | - | 0 mm | - | - | - |
| 1777406074 | 23.33° C | 70% | 983.4 hPa | 0 mm | - | - | - |
| 1777400331 | 22.22° C | 73% | 984 hPa | 0 mm | - | - | - |
| 1777399601 | 21.67° C | 75% | 984 hPa | 0 mm | - | - | - |
| 1777398136 | 21.11° C | 77% | 984 hPa | 0 mm | - | - | - |
| 1777395648 | 21.11° C | 74% | 984.4 hPa | 0 mm | - | - | - |
| 1777394924 | 21.67° C | 73% | 984 hPa | 0 mm | - | - | - |
| 1777394204 | 21.67° C | 71% | 984.4 hPa | 0 mm | - | - | - |
| 1777392754 | 21.11° C | 72% | 984.4 hPa | 0 mm | - | - | - |
| 1777388785 | 20.56° C | 71% | 983.7 hPa | 0 mm | - | - | - |
| 1777388452 | 21.11° C | 70% | 983.7 hPa | 0 mm | - | - | - |
| 1777382664 | 16.11° C | 83% | 983.7 hPa | 0 mm | - | - | - |
| 1777380158 | 14.44° C | 89% | 983.7 hPa | 0 mm | - | - | - |
| 1777379789 | 14.44° C | 90% | 983.4 hPa | 0 mm | - | - | - |
| 1777379443 | 13.89° C | 91% | 983.7 hPa | 0 mm | - | - | - |
| 1777377651 | 13.33° C | 95% | 983 hPa | 0 mm | - | - | - |
| 1777376930 | 13.33° C | 94% | 982.7 hPa | 0 mm | - | - | - |
| 1777374051 | 12.78° C | 93% | - | 0 mm | - | - | - |
* Rain since midnight (hover to see other rain measurements)
** Current wind speed in m/s (hover to see current wind gust speed)